Terminal Aerodrome Forecast
Issued by NWS

Home | Current Version | Previous Version | Graphics & Text | Print | Product List | Glossary On
Versions: 1 2 3 4 5 6 7 8 9 10 11 12 13 14 15 16 17 18 19 20
833
FTUS43 KGRB 271140
TAFMTW
TAF
KMTW 271140Z 2712/2812 10007KT P6SM -SHRA SCT025 OVC050
      TEMPO 2712/2714 3SM TSRA BKN020CB
     FM271400 10009KT P6SM SHRA OVC024
     FM271600 10008KT 3SM SHRA OVC007
     FM272000 01004KT 6SM BR BKN015
     FM280900 28003KT 2SM BR BKN008=

USA.gov is the U.S. government's official web portal to all federal, state and local government web resources and services.